createdAt,value
2017-02-24T00:06:07.289Z,983.66
2017-02-24T00:16:07.292Z,985.41
2017-02-24T00:26:07.418Z,986.4
2017-02-24T00:36:07.370Z,987.36
2017-02-24T00:46:07.338Z,988.11
2017-02-24T00:56:07.325Z,988.79
2017-02-24T01:06:07.327Z,989.24
2017-02-24T01:16:07.422Z,989.94
2017-02-24T01:26:07.352Z,990.43
2017-02-24T01:36:07.446Z,991.03
2017-02-24T01:46:07.362Z,991.54
2017-02-24T01:56:07.366Z,991.84
2017-02-24T02:06:07.425Z,992.17
2017-02-24T02:16:07.387Z,992.62
2017-02-24T02:26:07.401Z,992.98
2017-02-24T02:36:07.415Z,993.3
2017-02-24T02:46:07.425Z,993.76
2017-02-24T02:56:07.416Z,993.8
2017-02-24T03:06:07.493Z,993.97
2017-02-24T03:16:07.432Z,994.16
2017-02-24T03:26:07.445Z,994.36
2017-02-24T03:36:07.452Z,994.6
2017-02-24T03:46:07.441Z,994.81
2017-02-24T03:56:07.511Z,995.23
2017-02-24T04:06:07.455Z,995.42
2017-02-24T04:16:07.491Z,995.65
2017-02-24T04:26:07.472Z,995.84
2017-02-24T04:36:07.481Z,996.16
2017-02-24T04:46:07.515Z,996.24
2017-02-24T04:56:07.496Z,996.42
2017-02-24T05:06:07.510Z,996.65
2017-02-24T05:16:07.583Z,996.95
2017-02-24T05:26:07.523Z,997.13
2017-02-24T05:36:07.512Z,997.35
2017-02-24T05:46:07.530Z,997.62
2017-02-24T05:56:07.548Z,997.88
2017-02-24T06:06:07.540Z,998.2
2017-02-24T06:16:07.671Z,998.36
2017-02-24T06:26:07.619Z,998.67
2017-02-24T06:36:07.580Z,999
2017-02-24T06:46:07.581Z,999.25
2017-02-24T06:56:07.593Z,999.5
2017-02-24T07:06:07.681Z,999.77
2017-02-24T07:16:07.631Z,1000.05
2017-02-24T07:26:07.693Z,1000.38
2017-02-24T07:36:07.607Z,1000.71
2017-02-24T07:46:07.734Z,1000.9
2017-02-24T07:56:07.644Z,1001.27
2017-02-24T08:06:07.751Z,1001.54
2017-02-24T08:16:07.722Z,1001.79
2017-02-24T08:26:07.666Z,1001.93
2017-02-24T08:36:07.682Z,1002.26
2017-02-24T08:46:07.710Z,1002.52
2017-02-24T08:56:07.676Z,1002.62
2017-02-24T09:06:07.702Z,1002.77
2017-02-24T09:16:07.697Z,1003
2017-02-24T09:26:07.700Z,1003.15
2017-02-24T09:36:07.728Z,1003.36
2017-02-24T09:46:07.735Z,1003.61
2017-02-24T09:56:07.731Z,1003.76
2017-02-24T10:06:07.752Z,1003.94
2017-02-24T10:16:07.733Z,1004.13
2017-02-24T10:26:07.745Z,1004.27
2017-02-24T10:36:07.758Z,1004.43
2017-02-24T10:46:07.765Z,1004.43
2017-02-24T10:56:07.793Z,1004.74
2017-02-24T11:06:07.785Z,1004.78
2017-02-24T11:16:07.790Z,1004.84
2017-02-24T11:26:07.874Z,1004.89
2017-02-24T11:36:07.807Z,1004.92
2017-02-24T11:46:07.812Z,1005.07
2017-02-24T11:56:07.822Z,1005.11
2017-02-24T12:06:07.909Z,1005.26
2017-02-24T12:16:07.861Z,1005.35
2017-02-24T12:26:07.858Z,1005.4
2017-02-24T12:36:07.867Z,1005.43
2017-02-24T12:46:07.888Z,1005.63
2017-02-24T12:56:07.936Z,1005.59
2017-02-24T13:06:07.904Z,1005.74
2017-02-24T13:16:07.931Z,1005.63
2017-02-24T13:26:08.024Z,1005.6
2017-02-24T13:36:07.997Z,1005.64
2017-02-24T13:46:07.940Z,1005.75
2017-02-24T13:56:08.022Z,1005.87
2017-02-24T14:06:08.063Z,1005.72
2017-02-24T14:16:07.958Z,1005.82
2017-02-24T14:26:07.990Z,1005.89
2017-02-24T14:36:07.968Z,1005.93
2017-02-24T14:46:08.038Z,1005.95
2017-02-24T14:56:07.997Z,1006.1
2017-02-24T15:06:08.033Z,1006.36
2017-02-24T15:16:08.015Z,1006.6
2017-02-24T15:26:08.007Z,1006.77
2017-02-24T15:36:08.021Z,1006.89
2017-02-24T15:46:08.748Z,1007.03
2017-02-24T15:56:08.065Z,1007.2
2017-02-24T16:06:08.107Z,1007.47
2017-02-24T16:16:08.095Z,1007.62
2017-02-24T16:26:08.079Z,1007.73
2017-02-24T16:36:08.074Z,1007.95
2017-02-24T16:46:08.079Z,1008.12
2017-02-24T16:56:08.105Z,1008.34
2017-02-24T17:06:08.108Z,1008.52
2017-02-24T17:16:08.117Z,1008.7
2017-02-24T17:26:08.149Z,1008.87
2017-02-24T17:36:08.123Z,1008.95
2017-02-24T17:46:08.146Z,1009.21
2017-02-24T17:56:08.173Z,1009.48
2017-02-24T18:06:08.245Z,1009.6
2017-02-24T18:16:08.173Z,1009.89
2017-02-24T18:26:08.156Z,1010.11
2017-02-24T18:36:08.181Z,1010.2
2017-02-24T18:46:08.299Z,1010.41
2017-02-24T18:56:08.207Z,1010.48
2017-02-24T19:06:08.196Z,1010.54
2017-02-24T19:16:08.302Z,1010.56
2017-02-24T19:26:08.210Z,1010.61
2017-02-24T19:36:08.213Z,1010.61
2017-02-24T19:46:08.216Z,1010.69
2017-02-24T19:56:08.221Z,1010.81
2017-02-24T20:06:08.219Z,1010.75
2017-02-24T20:16:08.351Z,1010.82
2017-02-24T20:26:08.306Z,1010.87
2017-02-24T20:36:08.262Z,1011.03
2017-02-24T20:46:08.332Z,1011.15
2017-02-24T20:56:08.262Z,1011.12
2017-02-24T21:06:08.336Z,1011.18
2017-02-24T21:16:08.307Z,1011.33
2017-02-24T21:26:08.313Z,1011.45
2017-02-24T21:36:08.340Z,1011.53
2017-02-24T21:46:08.326Z,1011.68
2017-02-24T21:56:08.379Z,1011.78
2017-02-24T22:06:08.426Z,1011.86
2017-02-24T22:16:08.387Z,1011.92
2017-02-24T22:26:08.351Z,1011.89
2017-02-24T22:36:09.409Z,1011.9
2017-02-24T22:46:08.401Z,1011.85
2017-02-24T22:56:08.439Z,1011.88
2017-02-24T23:06:08.360Z,1011.86
2017-02-24T23:16:08.379Z,1011.95
2017-02-24T23:26:08.385Z,1012.01
2017-02-24T23:36:09.083Z,1012.05
2017-02-24T23:46:08.402Z,1012.16
2017-02-24T23:56:08.378Z,1012.15
